Time;durP1;ratioP1;P1;durP2;ratioP2;P2;SDS_P1;SDS_P2;PMS_P1;PMS_P2;Temp;Humidity;BMP_temperature;BMP_pressure;BME280_temperature;BME280_humidity;BME280_pressure;Samples;Min_cycle;Max_cycle;Signal;HPM_P1;HPM_P2
2023/09/28 12:50:23;;;;;;;7.38;3.78;;;;;;;28.35;36.31;101090.44;5450889;23;20030;-93
2023/09/28 12:53:02;;;;;;;5.72;3.72;;;;;;;28.29;38.52;101089.19;5181422;23;20030;-95
2023/09/28 12:55:42;;;;;;;7.80;4.40;;;;;;;28.50;36.03;101093.34;5093269;23;20032;31
2023/09/28 12:58:18;;;;;;;6.70;4.10;;;;;;;28.78;36.42;101094.72;5538901;23;21197;-95
2023/09/28 13:00:47;;;;;;;5.93;3.85;;;;;;;29.03;36.70;101096.88;5772295;23;20023;-89
2023/09/28 13:03:18;;;;;;;4.72;3.80;;;;;;;29.08;36.20;101091.66;4892485;29;20062;-94
2023/09/28 13:12:44;;;;;;;5.50;3.78;;;;;;;29.66;36.78;101095.88;5288789;23;20036;-96
2023/09/28 13:15:23;;;;;;;4.97;4.10;;;;;;;29.81;36.66;101091.06;5079304;23;20052;-96
2023/09/28 13:18:00;;;;;;;4.80;3.75;;;;;;;29.83;36.03;101083.00;4927209;23;20466;-96
2023/09/28 13:20:42;;;;;;;7.45;3.60;;;;;;;29.92;35.71;101091.88;5052241;23;20056;-95
2023/09/28 13:23:43;;;;;;;8.50;4.00;;;;;;;29.97;36.43;101087.84;5249490;24;20760;31
2023/09/28 13:26:14;;;;;;;7.80;3.78;;;;;;;30.03;36.21;101091.88;5695134;23;20237;-96
2023/09/28 13:38:02;;;;;;;4.57;3.65;;;;;;;29.75;36.30;101070.91;5119847;23;20019;31
2023/09/28 13:46:47;;;;;;;5.75;3.95;;;;;;;29.74;35.58;101058.84;5293673;23;20032;-96
2023/09/28 13:49:53;;;;;;;7.80;3.90;;;;;;;29.92;36.16;101066.50;5209916;23;20024;31
2023/09/28 13:59:06;;;;;;;5.15;3.80;;;;;;;29.55;34.96;101068.47;3891460;23;20222;-95
2023/09/28 14:04:35;;;;;;;5.57;3.97;;;;;;;29.36;36.88;101050.69;5322745;24;20049;-96
2023/09/28 14:07:59;;;;;;;4.10;3.65;;;;;;;29.48;34.91;101063.63;5822453;23;20157;31
2023/09/28 14:16:37;;;;;;;3.42;3.13;;;;;;;29.53;35.13;101056.00;5828460;23;20744;-87
2023/09/28 14:19:07;;;;;;;6.07;3.20;;;;;;;29.26;34.13;101043.03;4890909;29;20056;-94
2023/09/28 14:21:43;;;;;;;5.28;3.40;;;;;;;29.03;32.90;101046.19;4968332;23;20048;-85
2023/09/28 14:24:22;;;;;;;6.10;3.38;;;;;;;29.18;32.71;101061.91;5266573;23;20050;-95
2023/09/28 14:27:56;;;;;;;5.25;3.70;;;;;;;29.09;34.07;101047.41;4991448;23;21623;31
2023/09/28 14:36:48;;;;;;;5.53;3.60;;;;;;;28.84;38.83;101048.09;5634871;23;20024;-93
2023/09/28 14:39:17;;;;;;;3.78;2.95;;;;;;;28.82;39.04;101048.47;4873012;29;20064;-92
2023/09/28 14:41:47;;;;;;;7.88;3.60;;;;;;;28.67;38.67;101053.25;5061091;24;20610;-95
2023/09/28 14:44:15;;;;;;;9.15;3.55;;;;;;;28.71;39.10;101053.25;5002986;23;20027;-93
2023/09/28 14:46:44;;;;;;;6.72;3.85;;;;;;;28.61;38.82;101046.38;4950761;23;20075;-95
2023/09/28 14:49:13;;;;;;;6.30;3.88;;;;;;;28.40;39.24;101042.22;4862851;29;20064;-91
2023/09/28 14:51:42;;;;;;;5.60;3.80;;;;;;;28.43;40.73;101047.06;4964064;23;21013;-93
2023/09/28 14:54:11;;;;;;;5.28;3.53;;;;;;;28.48;39.86;101051.50;4852821;29;20057;-90
2023/09/28 14:56:40;;;;;;;5.70;3.80;;;;;;;28.50;39.95;101045.50;4879498;29;20151;-93
2023/09/28 14:59:12;;;;;;;5.25;3.60;;;;;;;28.44;40.06;101054.31;4877439;29;20049;-96
2023/09/28 15:01:45;;;;;;;9.00;4.13;;;;;;;28.35;40.20;101039.78;4901222;29;20049;-96
2023/09/28 15:04:14;;;;;;;10.60;4.47;;;;;;;28.40;40.24;101052.69;4857298;29;20057;-96
2023/09/28 15:06:43;;;;;;;6.10;3.90;;;;;;;28.38;40.54;101058.69;4864876;29;20068;-94
2023/09/28 15:09:12;;;;;;;5.35;3.78;;;;;;;28.23;40.03;101048.53;4863455;29;20067;-90
2023/09/28 15:11:41;;;;;;;5.80;3.75;;;;;;;28.11;41.21;101047.63;4870454;29;20055;-95
2023/09/28 15:14:10;;;;;;;6.70;4.10;;;;;;;28.07;40.73;101046.81;4873975;29;20055;-94
2023/09/28 15:16:42;;;;;;;5.75;3.92;;;;;;;28.10;41.12;101037.56;4852558;29;20053;-96
2023/09/28 15:19:11;;;;;;;9.43;4.03;;;;;;;28.14;40.72;101046.84;4849071;29;20049;-95
2023/09/28 15:21:41;;;;;;;7.93;3.88;;;;;;;28.02;40.67;101033.09;4853477;29;20060;-95
2023/09/28 15:24:10;;;;;;;4.32;3.80;;;;;;;27.96;41.32;101045.91;4870406;29;20053;-96
2023/09/28 15:26:39;;;;;;;5.45;3.50;;;;;;;27.81;41.07;101034.53;4891340;24;20048;-96
2023/09/28 15:29:09;;;;;;;6.35;3.60;;;;;;;27.71;41.73;101038.06;4886528;29;20059;-92
2023/09/28 15:31:43;;;;;;;10.30;3.85;;;;;;;27.70;40.85;101033.66;4877619;29;20056;-95
2023/09/28 15:34:12;;;;;;;4.70;3.88;;;;;;;27.57;40.66;101042.31;4886135;29;20065;-94
2023/09/28 15:36:45;;;;;;;4.65;3.58;;;;;;;27.54;42.28;101040.28;4884590;29;20369;-91
2023/09/28 15:39:24;;;;;;;9.20;4.00;;;;;;;27.45;42.30;101048.22;4874122;29;20056;-95
2023/09/28 15:41:59;;;;;;;7.95;3.78;;;;;;;27.41;41.89;101045.38;4890479;29;20062;-96
2023/09/28 15:44:36;;;;;;;6.20;4.10;;;;;;;27.36;42.15;101052.16;4944930;24;20051;-96
2023/09/28 15:47:05;;;;;;;6.40;3.60;;;;;;;27.29;42.61;101046.47;4907647;29;20051;-95
2023/09/28 15:49:34;;;;;;;5.65;4.00;;;;;;;27.22;43.54;101043.59;4868845;29;20064;-96
2023/09/28 15:52:07;;;;;;;6.15;4.18;;;;;;;27.10;43.01;101045.47;4863371;29;20053;-93
2023/09/28 15:54:36;;;;;;;7.72;4.03;;;;;;;26.99;42.77;101038.09;4856106;29;20053;-94
2023/09/28 15:57:04;;;;;;;8.90;4.00;;;;;;;27.12;43.92;101044.25;4861498;29;20060;-95
2023/09/28 15:59:33;;;;;;;5.78;3.92;;;;;;;27.05;44.15;101044.97;4846514;29;20048;-95
2023/09/28 16:02:02;;;;;;;6.25;4.22;;;;;;;26.98;43.33;101051.34;4881667;29;20080;-95
2023/09/28 16:04:31;;;;;;;9.40;4.03;;;;;;;26.89;43.41;101047.97;4900573;29;20060;-96
2023/09/28 16:07:01;;;;;;;4.93;3.92;;;;;;;26.86;44.83;101048.72;4877585;29;20052;-94
2023/09/28 16:09:29;;;;;;;6.75;3.95;;;;;;;26.74;44.69;101056.22;4882461;29;20064;-95
2023/09/28 16:11:59;;;;;;;6.65;3.78;;;;;;;26.66;46.18;101054.47;4854237;29;20057;-94
2023/09/28 16:14:34;;;;;;;7.40;4.10;;;;;;;26.71;46.56;101054.16;4844679;29;20057;-96
2023/09/28 16:17:06;;;;;;;4.75;4.22;;;;;;;26.66;45.66;101058.13;5271720;24;21524;-96
2023/09/28 16:23:14;;;;;;;4.87;3.67;;;;;;;26.59;45.39;101055.22;5961319;23;20023;31
2023/09/28 16:28:55;;;;;;;7.22;3.78;;;;;;;26.35;45.51;101048.84;4938060;23;20081;-96
2023/09/28 16:31:52;;;;;;;5.95;4.30;;;;;;;26.48;47.09;101057.06;5592978;23;20045;-96
2023/09/28 16:50:46;;;;;;;7.00;4.30;;;;;;;26.24;47.11;101076.72;5934231;23;20035;31
2023/09/28 16:53:29;;;;;;;6.43;4.10;;;;;;;26.13;48.28;101070.09;4826489;29;20058;-96
2023/09/28 16:56:03;;;;;;;;;;;;;;;25.99;46.90;101070.66;4813241;29;20067;-96
2023/09/28 16:58:39;;;;;;;6.28;3.85;;;;;;;25.86;48.89;101070.06;4812129;29;19925;-96
2023/09/28 17:01:15;;;;;;;5.00;4.35;;;;;;;25.90;49.34;101085.75;4808202;29;20061;-96
2023/09/28 17:03:48;;;;;;;6.43;4.68;;;;;;;25.84;49.33;101064.00;4810675;29;20049;-95
2023/09/28 17:06:27;;;;;;;10.50;4.63;;;;;;;25.82;47.55;101081.22;4987311;24;20051;-96
2023/09/28 18:15:58;;;;;;;11.80;5.15;;;;;;;24.76;54.89;101147.41;5095412;23;20189;-95
2023/09/28 18:18:27;;;;;;;9.32;5.07;;;;;;;24.67;54.59;101156.84;4797391;29;20069;-96
2023/09/28 18:20:56;;;;;;;6.85;4.95;;;;;;;24.51;54.81;101153.25;4810645;29;20062;-94
2023/09/28 18:23:27;;;;;;;9.93;5.38;;;;;;;24.43;54.78;101158.66;4830241;24;20058;-94
2023/09/28 18:26:28;;;;;;;8.82;5.10;;;;;;;24.37;55.53;101160.13;5490086;24;20058;-96
2023/09/28 18:29:04;;;;;;;15.38;5.40;;;;;;;24.52;56.02;101166.03;4838997;29;20053;-96
2023/09/28 18:34:51;;;;;;;7.40;4.90;;;;;;;24.37;55.70;101165.72;5025832;23;20050;-95
2023/09/28 18:41:18;;;;;;;8.25;5.45;;;;;;;24.27;56.26;101169.03;5882407;23;20704;31
2023/09/28 18:43:47;;;;;;;9.70;5.63;;;;;;;24.07;56.34;101168.94;4804684;29;20050;-96
2023/09/28 18:46:32;;;;;;;9.82;4.70;;;;;;;23.92;55.88;101172.47;5703331;23;20108;-94
2023/09/28 18:49:06;;;;;;;8.80;5.20;;;;;;;24.00;56.13;101180.69;4844199;29;20065;-93
2023/09/28 18:51:34;;;;;;;12.80;5.10;;;;;;;24.13;56.29;101184.28;4876529;24;20053;-95
2023/09/28 19:00:22;;;;;;;9.63;5.35;;;;;;;23.89;57.46;101191.59;4747912;30;20263;-87
2023/09/28 19:02:51;;;;;;;9.23;5.35;;;;;;;23.94;58.15;101201.69;4750092;30;20063;-86
2023/09/28 19:05:19;;;;;;;8.75;5.72;;;;;;;23.93;58.10;101207.63;4749387;30;20073;-83
2023/09/28 19:07:48;;;;;;;11.50;6.13;;;;;;;23.79;58.86;101208.88;5162166;24;20054;-90
2023/09/28 19:10:24;;;;;;;8.00;5.45;;;;;;;23.93;58.60;101208.47;4821964;29;20058;-86
2023/09/28 19:12:54;;;;;;;11.07;5.75;;;;;;;23.75;58.28;101208.78;4780119;29;20062;-86
2023/09/28 19:15:23;;;;;;;13.98;5.95;;;;;;;23.80;59.08;101204.09;4773064;29;20059;-86
2023/09/28 19:17:56;;;;;;;11.10;6.20;;;;;;;23.68;59.49;101216.94;4769761;29;20064;-84
2023/09/28 19:20:25;;;;;;;8.90;5.03;;;;;;;23.51;60.06;101209.66;4775802;29;20066;-89
2023/09/28 19:22:54;;;;;;;12.60;6.15;;;;;;;23.40;61.02;101208.56;4774853;29;20058;-88
2023/09/28 19:25:22;;;;;;;6.10;5.20;;;;;;;23.44;61.37;101218.66;4776914;29;20063;-86
2023/09/28 19:27:50;;;;;;;11.75;6.00;;;;;;;23.59;60.93;101217.09;4805216;29;20054;-77
2023/09/28 19:30:24;;;;;;;10.65;5.80;;;;;;;23.40;61.92;101219.72;4815718;29;20050;-75
2023/09/28 19:32:52;;;;;;;8.10;5.47;;;;;;;23.05;63.14;101216.25;4786143;29;20054;-76
2023/09/28 19:35:21;;;;;;;13.57;6.30;;;;;;;23.32;62.82;101213.91;4822925;29;20054;-75
2023/09/28 19:37:50;;;;;;;13.68;7.10;;;;;;;23.25;62.84;101222.03;4802121;29;20054;-78
2023/09/28 19:40:20;;;;;;;12.82;6.50;;;;;;;22.93;64.22;101231.03;4818465;29;20050;-72
2023/09/28 19:42:49;;;;;;;9.23;6.50;;;;;;;22.82;65.08;101232.66;4806572;29;20046;-75
2023/09/28 19:45:17;;;;;;;10.65;6.03;;;;;;;22.97;65.08;101236.72;4822619;29;20058;-76
2023/09/28 19:47:45;;;;;;;13.07;5.75;;;;;;;22.97;64.73;101235.91;4805960;29;20058;-76
2023/09/28 19:50:14;;;;;;;14.00;5.95;;;;;;;23.12;64.84;101229.59;4805185;29;20061;-76
2023/09/28 19:52:43;;;;;;;10.70;6.20;;;;;;;22.89;64.80;101240.44;4806481;29;20081;-76
2023/09/28 19:55:11;;;;;;;12.50;6.30;;;;;;;22.68;65.27;101238.59;4823065;29;20058;-75
2023/09/28 19:57:39;;;;;;;14.65;6.22;;;;;;;22.64;65.86;101243.22;4818676;29;20066;-75
2023/09/28 20:00:10;;;;;;;8.77;5.57;;;;;;;22.88;65.46;101244.41;4815369;29;20085;-71
2023/09/28 20:02:39;;;;;;;8.45;5.85;;;;;;;22.73;64.28;101246.72;4816352;29;20062;-69
2023/09/28 20:05:10;;;;;;;11.82;5.80;;;;;;;22.50;64.36;101246.31;4816213;29;20058;-66
2023/09/28 20:07:41;;;;;;;13.15;6.40;;;;;;;21.98;67.26;101246.50;4814784;29;20482;-66
2023/09/28 20:10:10;;;;;;;9.90;5.55;;;;;;;21.64;68.17;101251.19;4815870;29;20058;-66
2023/09/28 20:12:41;;;;;;;10.40;5.93;;;;;;;21.40;69.90;101246.31;4815095;29;20066;-66
2023/09/28 20:15:18;;;;;;;11.02;5.75;;;;;;;21.19;70.44;101242.34;4817130;29;20054;-66
2023/09/28 20:17:46;;;;;;;10.68;6.40;;;;;;;21.04;71.74;101249.31;4813137;29;20077;-66
2023/09/28 20:20:15;;;;;;;10.70;5.95;;;;;;;21.02;72.46;101245.22;4816702;29;20058;-66
2023/09/28 20:22:44;;;;;;;15.70;6.43;;;;;;;20.93;72.87;101246.06;4815949;29;20065;-65
2023/09/28 20:25:24;;;;;;;7.78;5.65;;;;;;;20.99;73.35;101249.50;4801541;29;20447;-66
2023/09/28 20:27:53;;;;;;;10.20;5.82;;;;;;;21.02;72.38;101253.56;4797932;29;20062;-65
2023/09/28 20:30:22;;;;;;;13.88;6.10;;;;;;;21.02;72.27;101256.34;4814238;29;20070;-66
2023/09/28 20:32:51;;;;;;;9.88;6.15;;;;;;;20.92;73.54;101247.22;4813749;29;20422;-66
2023/09/28 20:35:21;;;;;;;10.23;5.57;;;;;;;20.91;72.84;101259.50;4814488;29;20404;-66
2023/09/28 20:37:50;;;;;;;10.73;6.60;;;;;;;20.73;74.76;101253.16;4814786;29;20058;-66
2023/09/28 20:40:19;;;;;;;11.40;5.97;;;;;;;20.59;74.71;101249.78;4815570;29;20058;-66
2023/09/28 20:42:48;;;;;;;12.05;5.80;;;;;;;20.58;75.13;101260.09;4814776;29;20056;-66
2023/09/28 20:45:20;;;;;;;9.10;5.90;;;;;;;20.56;74.87;101256.81;4814930;29;20066;-66
2023/09/28 20:47:48;;;;;;;9.65;5.90;;;;;;;20.52;75.51;101259.47;4813899;29;20062;-66
2023/09/28 20:50:16;;;;;;;12.25;6.13;;;;;;;20.46;75.59;101265.53;4814768;29;20615;-66
2023/09/28 20:52:44;;;;;;;10.60;6.45;;;;;;;20.52;75.34;101259.47;4815466;29;20054;-66
2023/09/28 20:55:16;;;;;;;12.85;5.90;;;;;;;20.43;76.60;101266.19;4815920;29;20058;-66
2023/09/28 20:57:47;;;;;;;9.45;5.45;;;;;;;20.37;75.82;101263.59;4814960;29;20109;-66
2023/09/28 21:00:18;;;;;;;11.05;5.93;;;;;;;20.34;74.98;101269.78;4815002;29;20062;-66
2023/09/28 21:02:47;;;;;;;11.75;6.25;;;;;;;20.28;75.27;101266.38;4815275;29;20068;-66
2023/09/28 21:05:16;;;;;;;8.60;5.88;;;;;;;20.27;75.68;101253.63;4815405;29;20062;-66
2023/09/28 21:07:44;;;;;;;12.57;5.80;;;;;;;20.24;75.53;101272.94;4798046;29;20062;-66
2023/09/28 21:10:13;;;;;;;13.27;5.90;;;;;;;20.19;77.34;101265.56;4815392;29;20058;-65
2023/09/28 21:12:46;;;;;;;8.95;5.53;;;;;;;20.08;76.82;101267.09;4815546;29;20067;-66
2023/09/28 21:15:15;;;;;;;9.15;5.97;;;;;;;20.16;75.51;101266.25;4815387;29;20081;-66
2023/09/28 21:17:43;;;;;;;8.82;6.03;;;;;;;20.08;76.47;101262.31;4814351;29;20753;-66
2023/09/28 21:20:13;;;;;;;7.78;5.88;;;;;;;20.04;77.29;101266.91;4802890;29;20066;-65
2023/09/28 21:22:42;;;;;;;10.10;5.63;;;;;;;20.05;76.70;101267.72;4815499;29;20070;-65
2023/09/28 21:25:12;;;;;;;7.15;5.50;;;;;;;20.21;75.70;101265.25;4815424;29;20066;-66
2023/09/28 21:27:41;;;;;;;10.60;6.10;;;;;;;20.27;75.30;101270.31;4815524;29;20070;-66
2023/09/28 21:30:12;;;;;;;7.05;5.50;;;;;;;20.24;75.60;101267.38;4815033;29;20576;-65
2023/09/28 21:32:40;;;;;;;11.05;5.75;;;;;;;20.16;76.01;101269.03;4813889;29;20594;-65
2023/09/28 21:35:09;;;;;;;9.82;6.05;;;;;;;20.18;75.82;101265.91;4814559;29;20509;-65
2023/09/28 22:09:21;;;;;;;8.73;5.93;;;;;;;19.62;77.60;101286.81;4822289;29;20054;-65
2023/09/28 22:11:51;;;;;;;9.68;6.18;;;;;;;19.44;78.83;101292.31;4805366;29;20062;-65
2023/09/28 22:14:19;;;;;;;8.10;5.43;;;;;;;19.43;78.86;101296.25;4804886;29;20057;-65
2023/09/28 22:16:47;;;;;;;9.43;6.13;;;;;;;19.33;80.16;101302.91;4805032;29;20055;-65
2023/09/28 22:19:15;;;;;;;10.00;6.35;;;;;;;19.26;79.97;101298.97;4805435;29;20066;-64
2023/09/28 22:21:43;;;;;;;9.35;6.07;;;;;;;19.28;80.30;101294.75;4804819;29;20073;-65
2023/09/28 22:24:14;;;;;;;8.80;6.18;;;;;;;19.20;81.76;101295.50;4804492;29;20069;-65
2023/09/28 22:26:42;;;;;;;8.70;5.43;;;;;;;19.27;80.32;101295.88;4804634;29;20062;-65
2023/09/28 22:29:09;;;;;;;10.02;6.18;;;;;;;19.34;80.71;101304.56;4804681;29;20051;-65
2023/09/28 22:31:38;;;;;;;13.38;6.72;;;;;;;19.33;79.86;101299.31;4805072;29;20522;-65
2023/09/28 22:34:05;;;;;;;9.38;6.20;;;;;;;19.33;80.05;101308.47;4804359;29;20054;-65
2023/09/28 22:36:34;;;;;;;10.93;6.47;;;;;;;19.32;79.28;101301.25;4804361;29;20493;-65
2023/09/28 22:39:02;;;;;;;9.27;6.07;;;;;;;19.38;80.47;101317.75;4804346;29;20066;-66
2023/09/28 22:41:31;;;;;;;14.20;6.70;;;;;;;19.28;79.84;101311.38;4804513;29;20065;-67
2023/09/28 22:43:59;;;;;;;11.32;6.45;;;;;;;19.30;80.23;101311.88;4804901;29;20066;-67
2023/09/28 22:46:28;;;;;;;8.82;6.10;;;;;;;19.22;81.56;101306.28;4805155;29;20062;-67
2023/09/28 22:48:57;;;;;;;9.13;6.03;;;;;;;19.17;81.45;101312.81;4804431;29;20130;-65
2023/09/28 22:51:25;;;;;;;11.93;5.78;;;;;;;19.09;81.43;101311.63;4804696;29;20065;-65
2023/09/28 22:53:53;;;;;;;9.02;6.22;;;;;;;19.11;81.93;101314.09;4804624;29;20402;-65
2023/09/28 22:56:21;;;;;;;7.93;5.97;;;;;;;19.14;81.19;101316.22;4804482;29;20525;-65
2023/09/28 22:58:49;;;;;;;9.57;5.80;;;;;;;19.11;81.74;101314.91;4804981;29;20043;-65
2023/09/28 23:01:16;;;;;;;9.63;6.13;;;;;;;19.16;81.58;101322.28;4802113;29;20062;-65
2023/09/28 23:03:45;;;;;;;13.02;6.88;;;;;;;19.12;81.25;101326.81;4804695;29;20051;-65
2023/09/28 23:06:13;;;;;;;8.23;6.18;;;;;;;19.08;81.46;101321.09;4804321;29;20050;-65
2023/09/28 23:08:41;;;;;;;11.57;6.63;;;;;;;19.10;82.02;101323.56;4809114;29;20066;-65
2023/09/28 23:11:15;;;;;;;10.85;6.90;;;;;;;19.12;81.61;101326.81;4823887;29;20055;-65
2023/09/28 23:13:43;;;;;;;8.73;6.78;;;;;;;19.12;82.06;101326.81;4827640;29;20066;-65
2023/09/28 23:16:12;;;;;;;10.70;6.70;;;;;;;18.98;82.25;101327.72;4829119;29;20047;-65
2023/09/28 23:18:41;;;;;;;11.07;7.32;;;;;;;18.90;83.25;101326.53;4828225;29;20057;-65
2023/09/28 23:21:11;;;;;;;11.13;6.88;;;;;;;18.97;82.94;101328.03;4828156;29;20058;-64
2023/09/28 23:23:38;;;;;;;12.90;7.20;;;;;;;18.89;83.47;101326.84;4828948;29;20065;-65
2023/09/28 23:26:10;;;;;;;12.40;6.93;;;;;;;18.91;82.91;101327.34;4827790;29;20061;-66
2023/09/28 23:28:41;;;;;;;12.88;7.15;;;;;;;18.85;83.94;101328.63;4828219;29;20067;-67
2023/09/28 23:31:12;;;;;;;13.40;6.28;;;;;;;18.80;84.24;101335.97;4828309;29;20051;-67
2023/09/28 23:33:40;;;;;;;10.60;6.60;;;;;;;18.71;85.68;101335.06;4828105;29;20061;-67
2023/09/28 23:36:11;;;;;;;10.70;6.30;;;;;;;18.71;85.54;101340.63;4828795;29;20050;-67
2023/09/28 23:38:38;;;;;;;10.80;6.78;;;;;;;18.70;85.19;101341.75;4827985;29;20061;-67
2023/09/28 23:41:06;;;;;;;8.00;6.10;;;;;;;18.80;85.03;101340.66;4828485;29;20054;-67
2023/09/28 23:43:34;;;;;;;9.75;6.80;;;;;;;18.74;84.49;101337.22;4828879;29;20046;-65
2023/09/28 23:46:02;;;;;;;11.07;6.95;;;;;;;18.78;84.76;101345.72;4828422;29;20057;-65
2023/09/28 23:48:31;;;;;;;13.50;6.90;;;;;;;18.86;84.24;101338.59;4828174;29;20065;-65
2023/09/28 23:51:05;;;;;;;12.88;7.60;;;;;;;18.88;85.22;101339.09;4828156;29;20055;-65
2023/09/28 23:53:34;;;;;;;14.75;7.55;;;;;;;18.77;85.55;101341.31;4828277;29;20062;-65
2023/09/28 23:56:03;;;;;;;13.98;6.93;;;;;;;18.72;85.80;101342.25;4828400;29;20065;-65
2023/09/28 23:58:31;;;;;;;10.50;6.80;;;;;;;18.71;85.94;101339.81;4828345;29;20066;-65
